Time;durP1;ratioP1;P1;durP2;ratioP2;P2;SDS_P1;SDS_P2;PMS_P1;PMS_P2;Temp;Humidity;BMP_temperature;BMP_pressure;BME280_temperature;BME280_humidity;BME280_pressure;Samples;Min_cycle;Max_cycle;Signal;HPM_P1;HPM_P2
2022/04/30 00:01:58;;;;;;;7.07;5.68;;;9.40;99.90;;;;;;5055254;28;20056;-62
2022/04/30 00:04:25;;;;;;;;;;;9.50;99.90;;;;;;5057205;28;20455;-62
2022/04/30 00:06:52;;;;;;;8.30;5.45;;;9.50;99.90;;;;;;5055601;28;19985;-63
2022/04/30 00:09:19;;;;;;;7.25;5.32;;;9.60;99.90;;;;;;5053407;28;20049;-62
2022/04/30 00:11:45;;;;;;;5.78;4.35;;;9.60;99.90;;;;;;5055621;28;20040;-62
2022/04/30 00:14:12;;;;;;;;;;;9.60;99.90;;;;;;5056248;28;20119;-62
2022/04/30 00:16:39;;;;;;;5.68;5.10;;;9.60;99.90;;;;;;5054934;28;20519;-62
2022/04/30 00:19:06;;;;;;;8.52;6.38;;;9.60;99.90;;;;;;5052905;28;20312;-62
2022/04/30 00:21:33;;;;;;;10.98;6.28;;;9.70;99.90;;;;;;5053849;28;20044;-62
2022/04/30 00:24:00;;;;;;;;;;;9.70;99.90;;;;;;5056861;28;20036;-62
2022/04/30 00:26:27;;;;;;;7.45;4.88;;;9.80;99.90;;;;;;5055491;28;20012;-62
2022/04/30 00:28:54;;;;;;;9.38;5.25;;;9.80;99.90;;;;;;5054956;28;20037;-62
2022/04/30 00:31:21;;;;;;;7.95;5.65;;;9.80;99.90;;;;;;5055045;28;20847;-62
2022/04/30 00:33:48;;;;;;;;;;;9.80;99.90;;;;;;5055046;28;20163;-62
2022/04/30 00:36:16;;;;;;;8.32;6.03;;;9.80;99.90;;;;;;5053561;28;19982;-62
2022/04/30 00:38:42;;;;;;;9.68;5.63;;;9.80;99.90;;;;;;5053570;28;20909;-63
2022/04/30 00:41:10;;;;;;;7.18;5.80;;;9.80;99.90;;;;;;5053846;28;20676;-62
2022/04/30 00:43:47;;;;;;;11.02;6.15;;;9.90;99.90;;;;;;5055292;28;20566;-62
2022/04/30 00:46:15;;;;;;;8.32;5.20;;;9.90;99.90;;;;;;5054773;28;20485;-62
2022/04/30 00:48:43;;;;;;;5.95;4.60;;;9.90;99.90;;;;;;5054317;28;21015;-62
2022/04/30 00:51:12;;;;;;;6.85;4.93;;;9.90;99.90;;;;;;5050038;28;20033;-62
2022/04/30 00:53:43;;;;;;;9.52;5.80;;;9.90;99.90;;;;;;5035461;28;20068;-63
2022/04/30 00:56:13;;;;;;;10.10;5.38;;;9.90;99.90;;;;;;5035152;28;20592;-62
2022/04/30 00:58:47;;;;;;;8.32;6.43;;;9.90;99.90;;;;;;5034385;28;20471;-63
2022/04/30 01:01:14;;;;;;;14.70;6.40;;;9.90;99.90;;;;;;5034852;28;20559;-62
2022/04/30 01:04:07;;;;;;;9.10;6.55;;;9.90;99.90;;;;;;5034476;28;20639;-63
2022/04/30 01:06:37;;;;;;;8.00;5.20;;;9.90;99.90;;;;;;5040118;28;20044;-63
2022/04/30 01:09:10;;;;;;;7.30;5.50;;;10.00;99.90;;;;;;5054344;28;20040;-63
2022/04/30 01:11:37;;;;;;;7.22;6.00;;;10.00;99.90;;;;;;5053925;28;20040;-62
2022/04/30 01:14:04;;;;;;;10.45;6.68;;;9.90;99.90;;;;;;5054058;28;20048;-62
2022/04/30 01:16:31;;;;;;;;;;;10.00;99.90;;;;;;5054159;28;20552;-62
2022/04/30 01:19:01;;;;;;;15.53;8.23;;;10.00;99.90;;;;;;5054378;28;19924;-63
2022/04/30 01:21:30;;;;;;;11.45;7.93;;;10.10;99.90;;;;;;5053036;28;20686;-63
2022/04/30 01:23:57;;;;;;;14.50;8.07;;;10.10;99.90;;;;;;5054154;28;20515;-62
2022/04/30 01:26:27;;;;;;;16.60;8.20;;;10.20;99.90;;;;;;5054411;28;20523;-62
2022/04/30 01:28:54;;;;;;;10.77;7.75;;;10.30;99.90;;;;;;5035533;28;20529;-62
2022/04/30 01:39:37;;;;;;;19.08;11.35;;;10.40;99.90;;;;;;5053409;28;20477;-63
2022/04/30 01:42:11;;;;;;;14.82;9.88;;;10.30;99.90;;;;;;5054228;28;20043;-63
2022/04/30 01:44:41;;;;;;;15.13;10.40;;;10.30;99.90;;;;;;5044751;28;20789;-63
2022/04/30 01:47:08;;;;;;;17.80;10.55;;;10.20;99.90;;;;;;5053340;28;20783;-63
2022/04/30 01:49:35;;;;;;;16.65;10.55;;;10.20;99.90;;;;;;5053800;28;20044;-63
2022/04/30 01:52:09;;;;;;;13.38;10.90;;;10.10;99.90;;;;;;5049992;28;20449;-63
2022/04/30 01:54:36;;;;;;;15.63;11.25;;;10.00;99.90;;;;;;5035241;28;20041;-63
2022/04/30 01:57:04;;;;;;;14.85;11.30;;;9.90;99.90;;;;;;5033209;28;20049;-63
2022/04/30 01:59:31;;;;;;;19.80;11.95;;;9.90;99.90;;;;;;5032614;28;20051;-64
2022/04/30 02:01:59;;;;;;;16.63;12.38;;;9.80;99.90;;;;;;5033669;28;20037;-63
2022/04/30 02:04:28;;;;;;;16.10;12.25;;;9.80;99.90;;;;;;5034281;28;20116;-64
2022/04/30 02:06:59;;;;;;;20.05;12.90;;;9.70;99.90;;;;;;5040490;28;20044;-65
2022/04/30 02:09:28;;;;;;;21.42;13.00;;;9.70;99.90;;;;;;5054125;28;20055;-64
2022/04/30 02:11:59;;;;;;;18.02;11.50;;;9.70;99.90;;;;;;5053267;28;20060;-65
2022/04/30 02:14:30;;;;;;;16.33;12.63;;;9.70;99.90;;;;;;5053752;28;20045;-65
2022/04/30 02:17:01;;;;;;;20.08;12.73;;;9.60;99.90;;;;;;5052575;28;20044;-64
2022/04/30 02:19:29;;;;;;;19.00;13.88;;;9.50;99.90;;;;;;5053921;28;20086;-65
2022/04/30 02:21:59;;;;;;;21.15;13.43;;;9.50;99.90;;;;;;5053722;28;20041;-64
2022/04/30 02:24:28;;;;;;;48.60;13.90;;;9.40;99.90;;;;;;5053220;28;20044;-65
2022/04/30 02:26:55;;;;;;;17.92;13.15;;;9.30;99.90;;;;;;5052601;28;20052;-65
2022/04/30 02:29:24;;;;;;;18.25;12.82;;;9.30;99.90;;;;;;5050981;28;20451;-66
2022/04/30 02:31:50;;;;;;;18.38;13.95;;;9.30;99.90;;;;;;5053667;28;20040;-64
2022/04/30 02:34:17;;;;;;;22.52;16.55;;;9.20;99.90;;;;;;5053159;28;20072;-65
2022/04/30 02:36:44;;;;;;;17.95;14.13;;;9.20;99.90;;;;;;5052701;28;20040;-66
2022/04/30 02:39:11;;;;;;;18.02;13.45;;;9.20;99.90;;;;;;5051775;28;20056;-65
2022/04/30 02:41:37;;;;;;;17.50;13.82;;;9.10;99.90;;;;;;5052395;28;20048;-66
2022/04/30 02:44:05;;;;;;;21.77;14.95;;;9.10;99.90;;;;;;5053359;28;20457;-66
2022/04/30 02:46:32;;;;;;;16.60;12.93;;;9.10;99.90;;;;;;5053217;28;20668;-65
2022/04/30 02:48:59;;;;;;;;;;;9.10;99.90;;;;;;5053798;28;20044;-65
2022/04/30 02:51:26;;;;;;;22.08;15.70;;;9.10;99.90;;;;;;5050849;28;20051;-65
2022/04/30 02:53:54;;;;;;;21.75;16.23;;;9.00;99.90;;;;;;5042200;28;20088;-66
2022/04/30 02:56:21;;;;;;;25.88;18.25;;;9.00;99.90;;;;;;5031580;28;20048;-66
2022/04/30 03:01:33;;;;;;;32.58;18.00;;;9.00;99.90;;;;;;5045479;28;19931;-66
2022/04/30 03:04:09;;;;;;;23.63;18.67;;;8.90;99.90;;;;;;5050296;28;20047;-66
2022/04/30 03:06:35;;;;;;;;;;;8.90;99.90;;;;;;5053117;28;20055;-66
2022/04/30 03:09:03;;;;;;;28.75;17.10;;;8.90;99.90;;;;;;5052391;28;19963;-66
2022/04/30 03:11:31;;;;;;;29.90;22.00;;;8.80;99.90;;;;;;5052789;28;20049;-65
2022/04/30 03:13:58;;;;;;;25.63;19.73;;;8.80;99.90;;;;;;5052703;28;20044;-66
2022/04/30 03:21:56;;;;;;;20.63;17.13;;;8.70;99.90;;;;;;5053234;28;20068;-66
2022/04/30 03:24:22;;;;;;;;;;;8.80;99.90;;;;;;5054002;28;20111;-66
2022/04/30 03:26:49;;;;;;;27.80;20.65;;;8.70;99.90;;;;;;5052043;28;19990;-65
2022/04/30 03:29:18;;;;;;;;;;;8.70;99.90;;;;;;5051697;28;20047;-65
2022/04/30 03:31:45;;;;;;;23.05;16.33;;;8.80;99.90;;;;;;5052634;28;19924;-65
2022/04/30 03:34:12;;;;;;;;;;;8.80;99.90;;;;;;5053667;28;20098;-65
2022/04/30 03:36:40;;;;;;;23.77;17.45;;;8.80;99.90;;;;;;5051691;28;20569;-65
2022/04/30 03:39:07;;;;;;;20.30;16.02;;;8.80;99.90;;;;;;5055760;28;20040;-65
2022/04/30 03:41:34;;;;;;;24.08;17.27;;;8.80;99.90;;;;;;5056103;28;20055;-65
2022/04/30 03:44:01;;;;;;;29.90;21.52;;;8.80;99.90;;;;;;5056484;28;20068;-65
2022/04/30 03:46:28;;;;;;;25.83;20.23;;;8.80;99.90;;;;;;5056886;28;20036;-65
2022/04/30 03:48:56;;;;;;;27.42;18.65;;;8.80;99.90;;;;;;5055465;28;20061;-65
2022/04/30 03:51:24;;;;;;;22.98;18.27;;;8.70;99.90;;;;;;5056737;28;20037;-64
2022/04/30 03:53:53;;;;;;;22.27;18.40;;;8.70;99.90;;;;;;5052485;28;20682;-65
2022/04/30 03:56:20;;;;;;;29.90;20.98;;;8.70;99.90;;;;;;5040397;28;20746;-65
2022/04/30 03:58:47;;;;;;;;;;;8.70;99.90;;;;;;5055306;28;20045;-65
2022/04/30 04:01:15;;;;;;;22.63;16.83;;;8.70;99.90;;;;;;5056106;28;19924;-65
2022/04/30 04:03:42;;;;;;;19.25;15.02;;;8.70;99.90;;;;;;5056494;28;20123;-65
2022/04/30 04:06:09;;;;;;;21.27;17.70;;;8.70;99.90;;;;;;5055708;28;20495;-65
2022/04/30 04:08:36;;;;;;;20.73;16.95;;;8.70;99.90;;;;;;5055499;28;20049;-65
2022/04/30 04:11:03;;;;;;;19.08;15.98;;;8.70;99.90;;;;;;5055667;28;20037;-65
2022/04/30 04:19:03;;;;;;;18.23;14.35;;;8.60;99.90;;;;;;5055787;28;20045;-64
2022/04/30 04:21:29;;;;;;;20.80;16.17;;;8.60;99.90;;;;;;5055237;28;20082;-65
2022/04/30 04:26:55;;;;;;;16.02;13.25;;;8.50;99.90;;;;;;5053467;28;20052;-65
2022/04/30 04:29:22;;;;;;;;;;;8.50;99.90;;;;;;5055670;28;20033;-64
2022/04/30 04:31:49;;;;;;;22.83;14.18;;;8.50;99.90;;;;;;5055996;28;20350;-65
2022/04/30 04:34:16;;;;;;;;;;;8.40;99.90;;;;;;5056383;28;20155;-65
2022/04/30 04:36:42;;;;;;;15.02;12.30;;;8.40;99.90;;;;;;5055273;28;20012;-64
2022/04/30 04:39:11;;;;;;;;;;;8.40;99.90;;;;;;5055658;28;20056;-65
2022/04/30 04:41:39;;;;;;;13.30;11.38;;;8.40;99.90;;;;;;5055467;28;19935;-65
2022/04/30 04:44:05;;;;;;;14.38;12.52;;;8.30;99.90;;;;;;5054689;28;20071;-65
2022/04/30 04:46:32;;;;;;;;;;;8.30;99.90;;;;;;5056100;28;20043;-64
2022/04/30 04:48:59;;;;;;;20.55;12.45;;;8.30;99.90;;;;;;5054763;28;19920;-64
2022/04/30 04:51:28;;;;;;;13.18;11.20;;;8.30;99.90;;;;;;5054824;28;20044;-64
2022/04/30 04:53:55;;;;;;;16.20;12.88;;;8.30;99.90;;;;;;5055722;28;20048;-64
2022/04/30 04:56:22;;;;;;;18.73;13.18;;;8.30;99.90;;;;;;5042120;28;20076;-64
2022/04/30 04:58:49;;;;;;;16.00;11.73;;;8.30;99.90;;;;;;5033810;28;20044;-64
2022/04/30 05:01:16;;;;;;;18.35;13.82;;;8.30;99.90;;;;;;5034726;28;20542;-64
2022/04/30 05:03:43;;;;;;;18.08;12.43;;;8.30;99.90;;;;;;5035589;28;20123;-65
2022/04/30 05:06:10;;;;;;;14.23;12.27;;;8.30;99.90;;;;;;5036765;28;20483;-63
2022/04/30 05:08:37;;;;;;;17.48;12.77;;;8.20;99.90;;;;;;5035732;28;20048;-65
2022/04/30 05:11:04;;;;;;;18.70;12.57;;;8.20;99.90;;;;;;5054841;28;20040;-65
2022/04/30 05:13:31;;;;;;;;;;;8.20;99.90;;;;;;5054873;28;20075;-65
2022/04/30 05:15:58;;;;;;;16.15;11.63;;;8.20;99.90;;;;;;5052885;28;19925;-65
2022/04/30 05:18:24;;;;;;;;;;;8.20;99.90;;;;;;5054815;28;20036;-64
2022/04/30 05:20:51;;;;;;;16.73;13.52;;;8.20;99.90;;;;;;5054332;28;19932;-65
2022/04/30 05:23:18;;;;;;;17.75;13.75;;;8.20;99.90;;;;;;5054412;28;20047;-65
2022/04/30 05:25:45;;;;;;;18.77;13.82;;;8.20;99.90;;;;;;5052650;28;20090;-65
2022/04/30 05:28:12;;;;;;;18.65;14.48;;;8.20;99.90;;;;;;5053237;28;20056;-66
2022/04/30 05:30:39;;;;;;;22.20;14.35;;;8.20;99.90;;;;;;5054026;28;20032;-66
2022/04/30 05:33:06;;;;;;;20.15;15.57;;;8.20;99.90;;;;;;5053387;28;20040;-65
2022/04/30 05:35:33;;;;;;;21.08;14.30;;;8.20;99.90;;;;;;5053430;28;20965;-66
2022/04/30 05:38:00;;;;;;;18.25;13.63;;;8.20;99.90;;;;;;5054131;28;20052;-66
2022/04/30 05:40:27;;;;;;;18.08;14.07;;;8.10;99.90;;;;;;5054043;28;20033;-66
2022/04/30 05:42:53;;;;;;;28.48;13.70;;;8.10;99.90;;;;;;5052733;28;20036;-56
2022/04/30 05:45:20;;;;;;;21.55;14.63;;;8.10;99.90;;;;;;5052917;28;20102;-49
2022/04/30 05:49:13;;;;;;;16.63;13.48;;;8.10;99.90;;;;;;5091272;27;20644;-55
2022/04/30 05:51:40;;;;;;;;;;;8.00;99.90;;;;;;5091819;28;20059;-56
2022/04/30 05:54:07;;;;;;;18.50;13.10;;;8.00;99.90;;;;;;5090630;28;19992;-52
2022/04/30 05:56:34;;;;;;;;;;;8.00;99.90;;;;;;5082111;28;20477;-54
2022/04/30 05:59:01;;;;;;;19.48;15.23;;;8.10;99.90;;;;;;5068686;28;19974;-53
2022/04/30 06:01:28;;;;;;;15.20;12.45;;;8.10;99.90;;;;;;5071022;28;20051;-55
2022/04/30 06:03:55;;;;;;;14.07;11.57;;;8.10;99.90;;;;;;5052668;28;20105;-55
2022/04/30 06:06:23;;;;;;;17.40;12.63;;;8.10;99.90;;;;;;5073656;28;20051;-55
2022/04/30 06:08:50;;;;;;;19.65;13.05;;;8.20;99.90;;;;;;5089812;28;20167;-53
2022/04/30 06:11:17;;;;;;;;;;;8.20;99.90;;;;;;5091017;28;20075;-55
2022/04/30 06:13:44;;;;;;;13.52;11.55;;;8.30;99.90;;;;;;5090653;28;19959;-55
2022/04/30 06:16:11;;;;;;;14.63;11.30;;;8.30;99.90;;;;;;5091198;28;20505;-54
2022/04/30 06:18:37;;;;;;;;;;;8.40;99.90;;;;;;5090547;28;20044;-53
2022/04/30 06:21:24;;;;;;;15.77;12.57;;;8.50;99.90;;;;;;5089685;28;19969;-55
2022/04/30 06:23:51;;;;;;;13.48;11.25;;;8.60;99.90;;;;;;5090693;28;20050;-53
2022/04/30 06:26:18;;;;;;;14.45;11.30;;;8.60;99.90;;;;;;5090225;28;20055;-56
2022/04/30 06:28:44;;;;;;;16.10;10.98;;;8.70;99.90;;;;;;5089721;28;20519;-54
2022/04/30 06:31:11;;;;;;;16.23;11.30;;;8.70;99.90;;;;;;5090092;28;20040;-55
2022/04/30 06:33:39;;;;;;;;;;;8.80;99.90;;;;;;5090765;28;20121;-52
2022/04/30 06:36:06;;;;;;;17.60;12.05;;;8.80;99.90;;;;;;5090356;28;20336;-56
2022/04/30 06:38:33;;;;;;;;;;;8.80;99.90;;;;;;5090187;28;20587;-55
2022/04/30 06:41:00;;;;;;;15.50;12.60;;;8.80;99.90;;;;;;5088661;28;20688;-54
2022/04/30 06:43:27;;;;;;;;;;;8.80;99.90;;;;;;5090381;28;20056;-54
2022/04/30 06:45:53;;;;;;;19.48;14.43;;;8.80;99.90;;;;;;5090734;28;19924;-54
2022/04/30 06:48:20;;;;;;;;;;;8.80;99.90;;;;;;5089002;28;20739;-51
2022/04/30 06:50:48;;;;;;;15.85;12.70;;;8.70;99.90;;;;;;5089067;28;20677;-53
2022/04/30 06:58:50;;;;;;;15.48;11.02;;;8.80;99.90;;;;;;5071323;28;20049;-55
2022/04/30 07:04:05;;;;;;;13.25;11.00;;;8.90;99.90;;;;;;5054897;28;20825;-54
2022/04/30 07:06:33;;;;;;;14.65;10.70;;;9.00;99.90;;;;;;5061253;28;20151;-55
2022/04/30 07:09:02;;;;;;;15.18;12.45;;;9.00;99.90;;;;;;5075613;28;20040;-55
2022/04/30 07:11:29;;;;;;;17.50;14.00;;;9.10;99.90;;;;;;5075156;28;20052;-54
2022/04/30 07:13:56;;;;;;;;;;;9.20;99.90;;;;;;5077249;28;20040;-54
2022/04/30 07:16:23;;;;;;;15.68;12.10;;;9.20;99.90;;;;;;5075881;28;19959;-58
2022/04/30 07:18:50;;;;;;;14.52;11.52;;;9.20;99.90;;;;;;5074805;28;20729;-47
2022/04/30 07:21:17;;;;;;;16.10;12.38;;;9.30;99.90;;;;;;5075999;28;20040;-50
2022/04/30 07:23:44;;;;;;;;;;;9.30;99.90;;;;;;5075693;28;20052;-49
2022/04/30 07:26:11;;;;;;;17.02;11.88;;;9.30;99.90;;;;;;5075434;28;19924;-54
2022/04/30 07:28:37;;;;;;;;;;;9.40;99.90;;;;;;5073892;28;20047;-50
2022/04/30 07:31:05;;;;;;;15.60;12.10;;;9.40;99.90;;;;;;5075856;28;19965;-54
2022/04/30 07:33:32;;;;;;;14.77;12.02;;;9.40;99.90;;;;;;5075505;28;20052;-54
2022/04/30 07:36:00;;;;;;;16.30;12.02;;;9.50;99.90;;;;;;5074539;28;20043;-54
2022/04/30 07:38:27;;;;;;;;;;;9.50;99.90;;;;;;5075209;28;20058;-54
2022/04/30 07:40:54;;;;;;;13.68;12.13;;;9.50;99.90;;;;;;5073606;28;19931;-54
2022/04/30 07:43:21;;;;;;;14.13;12.18;;;9.50;99.90;;;;;;5075046;28;20052;-53
2022/04/30 07:45:48;;;;;;;15.80;12.60;;;9.50;99.90;;;;;;5074376;28;20113;-53
2022/04/30 07:48:16;;;;;;;13.80;10.98;;;9.50;99.90;;;;;;5072635;28;20112;-55
2022/04/30 07:50:45;;;;;;;13.10;10.65;;;9.60;99.90;;;;;;5075432;28;20559;-52
2022/04/30 07:53:14;;;;;;;16.45;12.88;;;9.60;99.90;;;;;;5074198;28;20405;-53
2022/04/30 07:57:44;;;;;;;14.65;11.35;;;9.60;99.90;;;;;;5050317;28;20639;-54
2022/04/30 08:00:12;;;;;;;;;;;9.60;99.90;;;;;;5034598;28;20052;-54
2022/04/30 08:02:38;;;;;;;13.75;10.55;;;9.60;99.90;;;;;;5042782;28;19953;-54
2022/04/30 08:05:06;;;;;;;15.57;11.88;;;9.60;99.90;;;;;;5025564;28;20065;-54
2022/04/30 08:07:33;;;;;;;13.95;11.57;;;9.60;99.90;;;;;;5023257;28;20551;-54
2022/04/30 08:10:00;;;;;;;;;;;9.60;99.90;;;;;;5031034;28;20075;-53
2022/04/30 08:12:26;;;;;;;17.73;12.77;;;9.70;99.90;;;;;;5015817;28;19925;-51
2022/04/30 08:14:54;;;;;;;;;;;9.70;99.90;;;;;;5011911;28;20046;-54
2022/04/30 08:17:20;;;;;;;15.73;12.57;;;9.70;99.90;;;;;;5015287;28;19932;-54
2022/04/30 08:19:48;;;;;;;;;;;9.80;99.90;;;;;;5011181;28;20684;-54
2022/04/30 08:22:14;;;;;;;16.33;14.40;;;9.90;99.90;;;;;;5008393;28;20549;-53
2022/04/30 08:24:41;;;;;;;17.00;12.75;;;9.90;99.90;;;;;;5009260;28;20045;-54
2022/04/30 08:27:09;;;;;;;15.93;13.25;;;9.90;99.90;;;;;;5012825;28;20492;-53
2022/04/30 08:29:36;;;;;;;;;;;10.00;99.90;;;;;;5012661;28;20133;-54
2022/04/30 08:32:03;;;;;;;14.38;11.20;;;10.00;99.90;;;;;;5010719;28;19940;-54
2022/04/30 08:34:32;;;;;;;18.50;12.60;;;10.00;99.90;;;;;;5010707;28;20049;-53
2022/04/30 08:36:58;;;;;;;13.82;10.27;;;10.00;99.90;;;;;;5007869;28;20048;-53
2022/04/30 08:39:25;;;;;;;18.75;11.95;;;10.00;99.90;;;;;;5009584;28;20565;-54
2022/04/30 08:41:53;;;;;;;;;;;10.00;99.90;;;;;;5030600;28;20043;-54
2022/04/30 08:44:19;;;;;;;14.53;11.10;;;10.00;99.90;;;;;;5030107;28;19932;-55
2022/04/30 08:46:46;;;;;;;17.25;10.65;;;10.10;99.90;;;;;;5029481;28;20467;-55
2022/04/30 08:49:13;;;;;;;11.15;9.63;;;10.10;99.90;;;;;;5029926;28;20133;-54
2022/04/30 08:51:40;;;;;;;;;;;10.10;99.90;;;;;;5030094;28;20049;-54
2022/04/30 08:54:07;;;;;;;15.63;12.02;;;10.20;99.90;;;;;;5029874;28;19933;-53
2022/04/30 08:56:36;;;;;;;17.35;11.52;;;10.20;99.90;;;;;;5029008;28;20033;-54
2022/04/30 08:59:07;;;;;;;14.85;11.05;;;10.30;99.90;;;;;;5025989;28;20499;-53
2022/04/30 09:01:49;;;;;;;15.45;12.05;;;10.30;99.90;;;;;;5033063;28;20597;-53
2022/04/30 09:04:16;;;;;;;13.82;11.27;;;10.30;99.90;;;;;;5030159;28;20310;-54
2022/04/30 09:06:48;;;;;;;14.63;10.23;;;10.40;99.90;;;;;;5007820;28;20042;-54
2022/04/30 09:09:22;;;;;;;14.63;10.23;;;10.50;99.90;;;;;;4995003;28;20057;-54
2022/04/30 09:11:53;;;;;;;11.48;9.88;;;10.60;99.90;;;;;;5006088;28;20045;-54
2022/04/30 09:14:27;;;;;;;14.20;11.50;;;10.80;99.90;;;;;;5016228;28;20050;-51
2022/04/30 09:17:09;;;;;;;11.77;10.48;;;10.90;99.90;;;;;;5012223;28;20268;-55
2022/04/30 09:19:44;;;;;;;13.75;10.88;;;11.10;99.90;;;;;;5016365;28;20054;-54
2022/04/30 09:22:11;;;;;;;12.52;9.23;;;11.20;99.90;;;;;;5016542;28;20054;-54
2022/04/30 09:24:48;;;;;;;;;;;11.30;99.90;;;;;;5016714;28;20511;-52
2022/04/30 09:27:51;;;;;;;12.48;9.95;;;11.30;99.90;;;;;;5014280;28;19924;-47
2022/04/30 09:30:29;;;;;;;12.63;9.43;;;11.50;99.90;;;;;;4996277;28;20079;-47
2022/04/30 09:33:04;;;;;;;14.20;10.25;;;11.70;99.90;;;;;;4996398;28;20104;-48
2022/04/30 09:38:20;;;;;;;13.23;10.38;;;12.10;99.90;;;;;;4994981;28;20547;-51
2022/04/30 09:40:58;;;;;;;13.52;10.52;;;12.20;99.90;;;;;;5006753;28;20037;-54
2022/04/30 09:43:34;;;;;;;14.82;10.32;;;12.30;99.90;;;;;;5014491;28;20107;-53
2022/04/30 09:46:06;;;;;;;14.00;9.98;;;12.20;99.90;;;;;;5015363;28;20470;-54
2022/04/30 09:54:07;;;;;;;11.20;9.90;;;12.20;99.90;;;;;;5015507;28;20125;-54
2022/04/30 09:56:37;;;;;;;16.35;10.15;;;12.10;99.90;;;;;;5013500;28;20037;-55
2022/04/30 09:59:10;;;;;;;11.75;10.02;;;12.00;99.90;;;;;;5015129;28;20128;-54
2022/04/30 10:01:39;;;;;;;13.52;9.52;;;12.00;99.90;;;;;;5026752;28;20045;-54
2022/04/30 10:04:11;;;;;;;11.90;10.07;;;12.00;99.90;;;;;;4993803;28;20049;-53
2022/04/30 10:06:46;;;;;;;16.40;10.52;;;12.00;99.90;;;;;;5001233;28;20781;-54
2022/04/30 10:09:38;;;;;;;19.05;10.55;;;12.00;99.90;;;;;;5014215;28;20055;-54
2022/04/30 10:12:31;;;;;;;13.23;9.63;;;12.10;99.90;;;;;;5003700;28;20053;-53
2022/04/30 10:15:35;;;;;;;16.98;10.05;;;12.20;99.90;;;;;;4995794;28;20771;-54
2022/04/30 10:18:07;;;;;;;15.02;10.38;;;12.30;99.90;;;;;;5013252;28;20038;-55
2022/04/30 10:20:34;;;;;;;16.25;11.38;;;12.40;99.90;;;;;;5013625;28;20052;-53
2022/04/30 10:23:06;;;;;;;16.45;12.02;;;12.80;99.90;;;;;;5015105;28;20411;-54
2022/04/30 10:25:41;;;;;;;18.63;11.90;;;13.10;99.90;;;;;;5015334;28;20050;-54
2022/04/30 10:28:10;;;;;;;15.13;11.77;;;13.30;99.90;;;;;;5008894;28;20443;-54
2022/04/30 10:30:38;;;;;;;14.40;11.77;;;13.50;99.90;;;;;;5014440;28;20037;-52
2022/04/30 10:33:08;;;;;;;15.60;12.30;;;13.70;99.90;;;;;;5015254;28;20057;-54
2022/04/30 10:35:39;;;;;;;15.52;11.85;;;13.80;99.90;;;;;;4996573;28;20037;-54
2022/04/30 10:38:13;;;;;;;17.05;10.85;;;13.90;99.90;;;;;;5013873;28;20129;-55
2022/04/30 10:40:50;;;;;;;23.95;12.38;;;14.10;99.90;;;;;;5004354;28;20095;-54
2022/04/30 10:43:26;;;;;;;16.08;11.35;;;14.30;99.90;;;;;;4994984;28;20063;-54
2022/04/30 10:45:56;;;;;;;15.75;10.23;;;14.50;99.90;;;;;;4995161;28;20042;-55
2022/04/30 10:48:24;;;;;;;14.32;11.98;;;14.70;99.90;;;;;;4993994;28;20100;-54
2022/04/30 10:51:16;;;;;;;17.90;14.00;;;14.80;99.90;;;;;;4994837;28;20543;-55
2022/04/30 10:53:46;;;;;;;17.48;11.45;;;14.90;99.90;;;;;;4994346;28;20050;-52
2022/04/30 10:56:15;;;;;;;15.25;10.88;;;15.00;99.90;;;;;;4994777;28;20050;-54
2022/04/30 10:58:42;;;;;;;17.35;12.13;;;15.10;99.90;;;;;;4993754;28;20042;-55
2022/04/30 11:01:10;;;;;;;;;;;15.30;99.90;;;;;;4996839;28;20034;-54
2022/04/30 11:03:37;;;;;;;;;;;15.40;99.90;;;;;;5020216;28;19925;-53
2022/04/30 11:06:04;;;;;;;13.50;10.65;;;15.40;99.90;;;;;;5014642;28;20714;-55
2022/04/30 11:08:32;;;;;;;14.50;10.15;;;15.40;99.90;;;;;;5013717;28;20057;-55
2022/04/30 11:10:59;;;;;;;13.85;10.70;;;15.50;99.90;;;;;;5011263;28;20045;-54
2022/04/30 11:13:25;;;;;;;17.30;12.23;;;15.50;99.90;;;;;;4994618;28;20042;-51
2022/04/30 11:15:52;;;;;;;;;;;15.50;99.90;;;;;;5000755;28;20056;-54
2022/04/30 11:18:20;;;;;;;15.13;11.68;;;15.50;99.90;;;;;;4993887;28;19932;-54
2022/04/30 11:20:47;;;;;;;17.05;12.63;;;15.50;99.90;;;;;;4994535;28;20038;-53
2022/04/30 11:23:22;;;;;;;17.73;13.52;;;15.40;99.90;;;;;;4994753;28;20045;-55
2022/04/30 11:25:49;;;;;;;17.45;13.40;;;15.30;99.90;;;;;;4992880;28;20407;-55
2022/04/30 11:28:16;;;;;;;15.75;12.65;;;15.20;99.90;;;;;;4998825;28;20046;-53
2022/04/30 11:30:44;;;;;;;;;;;15.20;99.90;;;;;;4994271;28;20042;-53
2022/04/30 11:33:12;;;;;;;20.65;13.00;;;15.10;99.90;;;;;;4994194;28;19965;-55
2022/04/30 11:35:39;;;;;;;17.00;12.10;;;15.10;99.90;;;;;;4993437;28;20057;-54
2022/04/30 11:38:10;;;;;;;18.13;12.32;;;15.10;99.90;;;;;;4992842;28;20555;-52
2022/04/30 11:40:42;;;;;;;14.48;11.43;;;15.10;99.90;;;;;;5003678;28;20049;-54
2022/04/30 11:43:09;;;;;;;17.63;11.95;;;15.10;99.90;;;;;;5013515;28;20121;-55
2022/04/30 11:45:42;;;;;;;15.85;10.85;;;15.00;99.90;;;;;;5012189;28;20525;-55
2022/04/30 11:48:10;;;;;;;;;;;15.00;99.90;;;;;;5013140;28;20053;-55
2022/04/30 11:50:39;;;;;;;14.13;10.48;;;14.90;99.90;;;;;;5014054;28;19932;-55
2022/04/30 11:53:07;;;;;;;14.57;12.98;;;14.90;99.90;;;;;;5014058;28;20049;-53
2022/04/30 11:55:38;;;;;;;17.30;12.60;;;14.80;99.90;;;;;;5013212;28;20045;-54
2022/04/30 11:58:05;;;;;;;15.68;11.63;;;14.70;99.90;;;;;;5013542;28;20575;-55
2022/04/30 12:00:52;;;;;;;14.82;11.43;;;14.70;99.90;;;;;;5012591;28;20131;-54
2022/04/30 12:03:29;;;;;;;12.50;9.98;;;14.70;99.90;;;;;;5008258;28;20120;-55
2022/04/30 12:05:57;;;;;;;16.97;12.73;;;14.60;99.90;;;;;;5028223;28;20499;-54
2022/04/30 12:08:28;;;;;;;12.23;10.77;;;14.70;99.90;;;;;;5012898;28;20049;-53
2022/04/30 12:10:56;;;;;;;18.98;12.60;;;14.70;99.90;;;;;;5011171;28;20069;-54
2022/04/30 12:13:25;;;;;;;19.83;12.75;;;14.70;99.90;;;;;;4994174;28;20204;-53
2022/04/30 12:16:06;;;;;;;22.27;13.57;;;14.70;99.90;;;;;;4999331;28;20050;-53
2022/04/30 12:26:52;;;;;;;22.23;15.35;;;14.60;99.90;;;;;;4993509;28;20586;-52
2022/04/30 12:29:20;;;;;;;19.05;16.05;;;14.70;99.90;;;;;;4997419;28;20052;-55
2022/04/30 12:31:49;;;;;;;18.30;15.60;;;15.10;99.90;;;;;;4992115;28;20049;-54
2022/04/30 12:34:35;;;;;;;21.13;15.90;;;15.50;99.90;;;;;;4992091;28;20120;-55
2022/04/30 12:37:02;;;;;;;21.10;17.05;;;15.70;99.90;;;;;;4992665;28;20050;-54
2022/04/30 12:39:29;;;;;;;16.88;15.07;;;15.70;99.90;;;;;;4994303;28;20034;-54
2022/04/30 12:41:59;;;;;;;21.23;16.35;;;15.50;99.90;;;;;;5012153;28;20068;-53
2022/04/30 12:44:29;;;;;;;19.45;14.82;;;15.40;99.90;;;;;;5016140;28;20669;-54
2022/04/30 12:46:56;;;;;;;19.25;17.17;;;15.30;99.90;;;;;;5016557;28;20050;-54
2022/04/30 12:49:23;;;;;;;20.60;16.83;;;15.10;99.90;;;;;;5015299;28;20052;-54
2022/04/30 12:51:50;;;;;;;22.40;16.33;;;14.80;99.90;;;;;;5016900;28;20133;-51
2022/04/30 12:54:17;;;;;;;;;;;14.60;99.90;;;;;;5017825;28;20083;-54
2022/04/30 12:56:45;;;;;;;22.90;16.40;;;14.30;99.90;;;;;;5015630;28;20431;-54
2022/04/30 12:59:14;;;;;;;24.35;19.13;;;14.10;99.90;;;;;;5016759;28;20626;-53
2022/04/30 13:01:42;;;;;;;19.27;15.93;;;13.80;99.90;;;;;;5015434;28;20042;-55
2022/04/30 13:04:09;;;;;;;20.13;15.48;;;13.50;99.90;;;;;;5023768;28;20044;-54
2022/04/30 13:06:36;;;;;;;22.42;17.23;;;13.20;99.90;;;;;;5017335;28;20091;-54
2022/04/30 13:14:35;;;;;;;19.00;14.70;;;12.40;99.90;;;;;;4996507;28;20046;-54
2022/04/30 13:17:03;;;;;;;14.32;10.75;;;12.10;99.90;;;;;;5001343;28;20672;-54
2022/04/30 13:19:33;;;;;;;14.48;10.23;;;11.70;99.90;;;;;;4996890;28;20050;-55
2022/04/30 13:22:01;;;;;;;15.43;8.25;;;11.40;99.90;;;;;;4996155;28;20050;-53
2022/04/30 13:24:29;;;;;;;14.02;8.50;;;11.10;99.90;;;;;;4996640;28;20041;-53
2022/04/30 13:26:57;;;;;;;12.90;9.45;;;10.70;99.90;;;;;;4995866;28;20070;-52
2022/04/30 13:29:24;;;;;;;12.40;8.98;;;10.50;99.90;;;;;;4998745;28;20045;-54
2022/04/30 13:31:51;;;;;;;10.43;6.63;;;10.20;99.90;;;;;;4996608;28;20042;-53
2022/04/30 13:34:21;;;;;;;8.30;7.13;;;9.90;99.90;;;;;;4996579;28;20506;-54
2022/04/30 13:36:48;;;;;;;7.85;5.82;;;9.70;99.90;;;;;;4995244;28;20042;-53
2022/04/30 13:39:15;;;;;;;7.22;5.57;;;9.50;99.90;;;;;;4995857;28;20049;-54
2022/04/30 13:41:42;;;;;;;;;;;9.30;99.90;;;;;;5013793;28;20053;-53
2022/04/30 13:44:09;;;;;;;5.95;4.85;;;9.20;99.90;;;;;;5015894;28;19929;-54
2022/04/30 13:46:39;;;;;;;11.25;4.68;;;9.10;99.90;;;;;;5015932;28;20650;-53
2022/04/30 13:49:15;;;;;;;9.30;4.53;;;8.90;99.90;;;;;;5016369;28;20045;-53
2022/04/30 13:51:42;;;;;;;7.88;5.50;;;8.80;99.90;;;;;;5015138;28;20077;-53
2022/04/30 13:54:09;;;;;;;11.85;7.00;;;8.80;99.90;;;;;;5016065;28;20049;-54
2022/04/30 13:56:37;;;;;;;7.70;5.95;;;8.80;99.90;;;;;;5013937;28;20045;-54
2022/04/30 13:59:07;;;;;;;7.75;6.63;;;8.80;99.90;;;;;;5013467;28;20052;-55